sensor_id;sensor_type;location;lat;lon;timestamp;P1;durP1;ratioP1;P2;durP2;ratioP2
13234;SDS011;6683;48.506;9.050;2024-03-17T00:02:56;1.70;;;1.30;;
13234;SDS011;6683;48.506;9.050;2024-03-17T00:05:57;1.30;;;1.20;;
13234;SDS011;6683;48.506;9.050;2024-03-17T00:09:00;1.60;;;1.40;;
13234;SDS011;6683;48.506;9.050;2024-03-17T00:12:08;1.30;;;1.20;;
13234;SDS011;6683;48.506;9.050;2024-03-17T00:15:11;2.00;;;1.33;;
13234;SDS011;6683;48.506;9.050;2024-03-17T00:18:15;1.30;;;1.20;;
13234;SDS011;6683;48.506;9.050;2024-03-17T00:21:16;2.17;;;1.70;;
13234;SDS011;6683;48.506;9.050;2024-03-17T00:24:20;3.97;;;1.30;;
13234;SDS011;6683;48.506;9.050;2024-03-17T00:27:23;2.03;;;1.30;;
13234;SDS011;6683;48.506;9.050;2024-03-17T00:30:25;1.77;;;1.60;;
13234;SDS011;6683;48.506;9.050;2024-03-17T00:33:28;1.47;;;1.37;;
13234;SDS011;6683;48.506;9.050;2024-03-17T00:36:29;1.40;;;1.10;;
13234;SDS011;6683;48.506;9.050;2024-03-17T00:39:31;1.90;;;1.30;;
13234;SDS011;6683;48.506;9.050;2024-03-17T00:42:34;1.10;;;1.00;;
13234;SDS011;6683;48.506;9.050;2024-03-17T00:45:36;1.20;;;1.10;;
13234;SDS011;6683;48.506;9.050;2024-03-17T00:48:38;1.30;;;1.17;;
13234;SDS011;6683;48.506;9.050;2024-03-17T00:51:40;1.23;;;1.13;;
13234;SDS011;6683;48.506;9.050;2024-03-17T00:54:43;1.47;;;1.37;;
13234;SDS011;6683;48.506;9.050;2024-03-17T00:57:49;1.20;;;1.10;;
13234;SDS011;6683;48.506;9.050;2024-03-17T01:00:52;1.77;;;1.30;;
13234;SDS011;6683;48.506;9.050;2024-03-17T01:03:54;2.80;;;1.20;;
13234;SDS011;6683;48.506;9.050;2024-03-17T01:06:56;1.50;;;1.40;;
13234;SDS011;6683;48.506;9.050;2024-03-17T01:09:59;1.80;;;1.17;;
13234;SDS011;6683;48.506;9.050;2024-03-17T01:13:01;1.37;;;1.27;;
13234;SDS011;6683;48.506;9.050;2024-03-17T01:16:04;2.00;;;1.27;;
13234;SDS011;6683;48.506;9.050;2024-03-17T01:19:07;1.83;;;1.50;;
13234;SDS011;6683;48.506;9.050;2024-03-17T01:22:08;1.17;;;1.10;;
13234;SDS011;6683;48.506;9.050;2024-03-17T01:25:10;2.10;;;1.43;;
13234;SDS011;6683;48.506;9.050;2024-03-17T01:28:13;1.50;;;1.37;;
13234;SDS011;6683;48.506;9.050;2024-03-17T01:31:15;2.00;;;1.60;;
13234;SDS011;6683;48.506;9.050;2024-03-17T01:34:18;2.30;;;1.60;;
13234;SDS011;6683;48.506;9.050;2024-03-17T01:37:19;2.13;;;1.40;;
13234;SDS011;6683;48.506;9.050;2024-03-17T01:40:22;2.43;;;1.80;;
13234;SDS011;6683;48.506;9.050;2024-03-17T01:43:24;1.73;;;1.63;;
13234;SDS011;6683;48.506;9.050;2024-03-17T01:46:27;2.10;;;1.80;;
13234;SDS011;6683;48.506;9.050;2024-03-17T01:49:30;2.80;;;1.43;;
13234;SDS011;6683;48.506;9.050;2024-03-17T01:52:32;1.80;;;1.60;;
13234;SDS011;6683;48.506;9.050;2024-03-17T01:55:34;1.70;;;1.60;;
13234;SDS011;6683;48.506;9.050;2024-03-17T01:58:40;2.40;;;1.57;;
13234;SDS011;6683;48.506;9.050;2024-03-17T02:01:46;2.43;;;1.63;;
13234;SDS011;6683;48.506;9.050;2024-03-17T02:04:48;2.00;;;1.80;;
13234;SDS011;6683;48.506;9.050;2024-03-17T02:07:50;1.70;;;1.57;;
13234;SDS011;6683;48.506;9.050;2024-03-17T02:10:53;1.93;;;1.57;;
13234;SDS011;6683;48.506;9.050;2024-03-17T02:13:55;2.10;;;1.90;;
13234;SDS011;6683;48.506;9.050;2024-03-17T02:16:58;2.00;;;1.80;;
13234;SDS011;6683;48.506;9.050;2024-03-17T02:20:00;4.57;;;1.90;;
13234;SDS011;6683;48.506;9.050;2024-03-17T02:23:09;3.10;;;1.70;;
13234;SDS011;6683;48.506;9.050;2024-03-17T02:26:10;1.70;;;1.60;;
13234;SDS011;6683;48.506;9.050;2024-03-17T02:29:13;3.23;;;1.70;;
13234;SDS011;6683;48.506;9.050;2024-03-17T02:32:14;1.60;;;1.50;;
13234;SDS011;6683;48.506;9.050;2024-03-17T02:35:17;2.20;;;1.80;;
13234;SDS011;6683;48.506;9.050;2024-03-17T02:38:21;2.00;;;1.80;;
13234;SDS011;6683;48.506;9.050;2024-03-17T02:41:37;2.00;;;1.80;;
13234;SDS011;6683;48.506;9.050;2024-03-17T02:44:43;2.23;;;1.70;;
13234;SDS011;6683;48.506;9.050;2024-03-17T02:47:45;3.80;;;1.57;;
13234;SDS011;6683;48.506;9.050;2024-03-17T02:50:49;1.57;;;1.33;;
13234;SDS011;6683;48.506;9.050;2024-03-17T02:53:53;2.33;;;1.40;;
13234;SDS011;6683;48.506;9.050;2024-03-17T02:56:55;2.03;;;1.53;;
13234;SDS011;6683;48.506;9.050;2024-03-17T02:59:57;2.10;;;1.57;;
13234;SDS011;6683;48.506;9.050;2024-03-17T03:03:00;1.50;;;1.40;;
13234;SDS011;6683;48.506;9.050;2024-03-17T03:06:02;1.40;;;1.30;;
13234;SDS011;6683;48.506;9.050;2024-03-17T03:09:10;1.77;;;1.50;;
13234;SDS011;6683;48.506;9.050;2024-03-17T03:12:14;1.47;;;1.30;;
13234;SDS011;6683;48.506;9.050;2024-03-17T03:15:16;1.60;;;1.30;;
13234;SDS011;6683;48.506;9.050;2024-03-17T03:18:19;1.73;;;1.30;;
13234;SDS011;6683;48.506;9.050;2024-03-17T03:21:21;1.30;;;1.20;;
13234;SDS011;6683;48.506;9.050;2024-03-17T03:24:24;1.80;;;1.40;;
13234;SDS011;6683;48.506;9.050;2024-03-17T03:27:27;1.60;;;1.40;;
13234;SDS011;6683;48.506;9.050;2024-03-17T03:30:29;1.43;;;1.33;;
13234;SDS011;6683;48.506;9.050;2024-03-17T03:33:31;1.50;;;1.40;;
13234;SDS011;6683;48.506;9.050;2024-03-17T03:36:34;1.33;;;1.20;;
13234;SDS011;6683;48.506;9.050;2024-03-17T03:39:38;1.40;;;1.17;;
13234;SDS011;6683;48.506;9.050;2024-03-17T03:42:40;1.30;;;1.20;;
13234;SDS011;6683;48.506;9.050;2024-03-17T03:45:42;1.47;;;1.37;;
13234;SDS011;6683;48.506;9.050;2024-03-17T03:48:45;1.10;;;1.00;;
13234;SDS011;6683;48.506;9.050;2024-03-17T03:51:47;2.40;;;1.20;;
13234;SDS011;6683;48.506;9.050;2024-03-17T03:54:52;2.43;;;1.30;;
13234;SDS011;6683;48.506;9.050;2024-03-17T03:57:54;2.00;;;1.10;;
13234;SDS011;6683;48.506;9.050;2024-03-17T04:00:56;1.70;;;1.40;;
13234;SDS011;6683;48.506;9.050;2024-03-17T04:03:59;1.73;;;1.40;;
13234;SDS011;6683;48.506;9.050;2024-03-17T04:07:03;1.87;;;1.50;;
13234;SDS011;6683;48.506;9.050;2024-03-17T04:10:07;3.40;;;2.97;;
13234;SDS011;6683;48.506;9.050;2024-03-17T04:13:11;3.83;;;2.80;;
13234;SDS011;6683;48.506;9.050;2024-03-17T04:16:14;3.37;;;2.40;;
13234;SDS011;6683;48.506;9.050;2024-03-17T04:19:16;2.80;;;2.23;;
13234;SDS011;6683;48.506;9.050;2024-03-17T04:22:18;3.43;;;2.00;;
13234;SDS011;6683;48.506;9.050;2024-03-17T04:25:23;2.57;;;1.70;;
13234;SDS011;6683;48.506;9.050;2024-03-17T04:28:25;1.63;;;1.30;;
13234;SDS011;6683;48.506;9.050;2024-03-17T04:31:28;1.60;;;1.50;;
13234;SDS011;6683;48.506;9.050;2024-03-17T04:34:30;1.70;;;1.13;;
13234;SDS011;6683;48.506;9.050;2024-03-17T04:37:33;1.33;;;1.20;;
13234;SDS011;6683;48.506;9.050;2024-03-17T04:40:40;1.30;;;1.20;;
13234;SDS011;6683;48.506;9.050;2024-03-17T04:43:43;1.40;;;1.30;;
13234;SDS011;6683;48.506;9.050;2024-03-17T04:46:46;1.63;;;1.33;;
13234;SDS011;6683;48.506;9.050;2024-03-17T04:49:48;1.57;;;1.37;;
13234;SDS011;6683;48.506;9.050;2024-03-17T04:52:50;1.20;;;1.10;;
13234;SDS011;6683;48.506;9.050;2024-03-17T04:56:04;1.30;;;1.20;;
13234;SDS011;6683;48.506;9.050;2024-03-17T04:59:07;2.90;;;1.70;;
13234;SDS011;6683;48.506;9.050;2024-03-17T05:02:09;1.40;;;1.30;;
13234;SDS011;6683;48.506;9.050;2024-03-17T05:05:11;1.33;;;1.10;;
13234;SDS011;6683;48.506;9.050;2024-03-17T05:08:14;2.03;;;1.40;;
13234;SDS011;6683;48.506;9.050;2024-03-17T05:11:17;1.47;;;1.37;;
13234;SDS011;6683;48.506;9.050;2024-03-17T05:14:20;1.23;;;1.07;;
13234;SDS011;6683;48.506;9.050;2024-03-17T05:17:22;1.27;;;1.17;;
13234;SDS011;6683;48.506;9.050;2024-03-17T05:20:24;2.23;;;1.20;;
13234;SDS011;6683;48.506;9.050;2024-03-17T05:23:27;1.60;;;1.40;;
13234;SDS011;6683;48.506;9.050;2024-03-17T05:26:31;1.23;;;1.10;;
13234;SDS011;6683;48.506;9.050;2024-03-17T05:29:33;1.30;;;1.20;;
13234;SDS011;6683;48.506;9.050;2024-03-17T05:32:37;1.70;;;1.30;;
13234;SDS011;6683;48.506;9.050;2024-03-17T05:35:40;2.37;;;1.43;;
13234;SDS011;6683;48.506;9.050;2024-03-17T05:38:49;1.60;;;1.50;;
13234;SDS011;6683;48.506;9.050;2024-03-17T05:41:52;2.07;;;1.60;;
13234;SDS011;6683;48.506;9.050;2024-03-17T05:44:54;1.60;;;1.50;;
13234;SDS011;6683;48.506;9.050;2024-03-17T05:47:57;1.30;;;1.20;;
13234;SDS011;6683;48.506;9.050;2024-03-17T05:51:00;1.40;;;1.30;;
13234;SDS011;6683;48.506;9.050;2024-03-17T05:54:03;1.43;;;1.30;;
13234;SDS011;6683;48.506;9.050;2024-03-17T05:57:07;2.10;;;1.40;;
13234;SDS011;6683;48.506;9.050;2024-03-17T06:00:12;1.87;;;1.53;;
13234;SDS011;6683;48.506;9.050;2024-03-17T06:03:15;3.50;;;1.60;;
13234;SDS011;6683;48.506;9.050;2024-03-17T06:06:17;1.83;;;1.50;;
13234;SDS011;6683;48.506;9.050;2024-03-17T06:09:19;1.80;;;1.40;;
13234;SDS011;6683;48.506;9.050;2024-03-17T06:12:24;1.73;;;1.27;;
13234;SDS011;6683;48.506;9.050;2024-03-17T06:15:26;1.43;;;1.33;;
13234;SDS011;6683;48.506;9.050;2024-03-17T06:18:28;2.10;;;1.30;;
13234;SDS011;6683;48.506;9.050;2024-03-17T06:21:31;1.60;;;1.50;;
13234;SDS011;6683;48.506;9.050;2024-03-17T06:24:33;1.40;;;1.30;;
13234;SDS011;6683;48.506;9.050;2024-03-17T06:27:39;1.27;;;1.17;;
13234;SDS011;6683;48.506;9.050;2024-03-17T06:30:42;1.73;;;1.63;;
13234;SDS011;6683;48.506;9.050;2024-03-17T06:33:46;1.33;;;1.23;;
13234;SDS011;6683;48.506;9.050;2024-03-17T06:36:49;1.60;;;1.43;;
13234;SDS011;6683;48.506;9.050;2024-03-17T06:39:52;1.87;;;1.63;;
13234;SDS011;6683;48.506;9.050;2024-03-17T06:42:56;2.20;;;1.67;;
13234;SDS011;6683;48.506;9.050;2024-03-17T06:45:59;2.30;;;1.70;;
13234;SDS011;6683;48.506;9.050;2024-03-17T06:49:02;1.90;;;1.67;;
13234;SDS011;6683;48.506;9.050;2024-03-17T06:52:05;1.60;;;1.50;;
13234;SDS011;6683;48.506;9.050;2024-03-17T06:55:07;1.50;;;1.40;;
13234;SDS011;6683;48.506;9.050;2024-03-17T06:58:12;2.07;;;1.47;;
13234;SDS011;6683;48.506;9.050;2024-03-17T07:01:20;1.67;;;1.57;;
13234;SDS011;6683;48.506;9.050;2024-03-17T07:04:22;1.90;;;1.67;;
13234;SDS011;6683;48.506;9.050;2024-03-17T07:07:26;2.50;;;1.53;;
13234;SDS011;6683;48.506;9.050;2024-03-17T07:10:29;1.70;;;1.60;;
13234;SDS011;6683;48.506;9.050;2024-03-17T07:13:33;2.07;;;1.87;;
13234;SDS011;6683;48.506;9.050;2024-03-17T07:16:36;2.10;;;1.87;;
13234;SDS011;6683;48.506;9.050;2024-03-17T07:19:39;3.20;;;2.00;;
13234;SDS011;6683;48.506;9.050;2024-03-17T07:22:41;2.20;;;2.00;;
13234;SDS011;6683;48.506;9.050;2024-03-17T07:25:51;3.20;;;2.00;;
13234;SDS011;6683;48.506;9.050;2024-03-17T07:28:56;2.27;;;1.83;;
13234;SDS011;6683;48.506;9.050;2024-03-17T07:32:01;4.50;;;2.03;;
13234;SDS011;6683;48.506;9.050;2024-03-17T07:35:04;2.63;;;2.40;;
13234;SDS011;6683;48.506;9.050;2024-03-17T07:38:08;2.30;;;2.10;;
13234;SDS011;6683;48.506;9.050;2024-03-17T07:41:11;2.47;;;2.10;;
13234;SDS011;6683;48.506;9.050;2024-03-17T07:44:14;2.77;;;2.57;;
13234;SDS011;6683;48.506;9.050;2024-03-17T07:47:17;3.17;;;2.67;;
13234;SDS011;6683;48.506;9.050;2024-03-17T07:50:19;2.77;;;2.37;;
13234;SDS011;6683;48.506;9.050;2024-03-17T07:53:24;3.23;;;2.90;;
13234;SDS011;6683;48.506;9.050;2024-03-17T07:56:29;3.17;;;2.87;;
13234;SDS011;6683;48.506;9.050;2024-03-17T07:59:34;2.87;;;2.67;;
13234;SDS011;6683;48.506;9.050;2024-03-17T08:02:36;3.60;;;3.30;;
13234;SDS011;6683;48.506;9.050;2024-03-17T08:05:39;3.40;;;3.10;;
13234;SDS011;6683;48.506;9.050;2024-03-17T08:08:42;3.67;;;2.87;;
13234;SDS011;6683;48.506;9.050;2024-03-17T08:11:48;3.80;;;3.00;;
13234;SDS011;6683;48.506;9.050;2024-03-17T08:14:52;3.33;;;3.03;;
13234;SDS011;6683;48.506;9.050;2024-03-17T08:17:54;3.20;;;2.93;;
13234;SDS011;6683;48.506;9.050;2024-03-17T08:20:56;3.50;;;3.17;;
13234;SDS011;6683;48.506;9.050;2024-03-17T08:24:00;3.30;;;3.00;;
13234;SDS011;6683;48.506;9.050;2024-03-17T08:27:03;3.43;;;3.13;;
13234;SDS011;6683;48.506;9.050;2024-03-17T08:30:12;2.70;;;2.50;;
13234;SDS011;6683;48.506;9.050;2024-03-17T08:33:17;2.87;;;2.67;;
13234;SDS011;6683;48.506;9.050;2024-03-17T08:36:19;3.20;;;2.97;;
13234;SDS011;6683;48.506;9.050;2024-03-17T08:39:22;2.80;;;2.60;;
13234;SDS011;6683;48.506;9.050;2024-03-17T08:42:24;2.83;;;2.63;;
13234;SDS011;6683;48.506;9.050;2024-03-17T08:45:28;3.03;;;2.73;;
13234;SDS011;6683;48.506;9.050;2024-03-17T08:48:32;3.17;;;2.67;;
13234;SDS011;6683;48.506;9.050;2024-03-17T08:51:35;3.83;;;2.80;;
13234;SDS011;6683;48.506;9.050;2024-03-17T08:54:40;2.67;;;2.47;;
13234;SDS011;6683;48.506;9.050;2024-03-17T08:57:47;2.87;;;2.67;;
13234;SDS011;6683;48.506;9.050;2024-03-17T09:00:50;2.93;;;2.47;;
13234;SDS011;6683;48.506;9.050;2024-03-17T09:03:52;2.50;;;2.20;;
13234;SDS011;6683;48.506;9.050;2024-03-17T09:06:56;2.73;;;2.40;;
13234;SDS011;6683;48.506;9.050;2024-03-17T09:10:00;3.33;;;2.30;;
13234;SDS011;6683;48.506;9.050;2024-03-17T09:13:03;2.90;;;2.70;;
13234;SDS011;6683;48.506;9.050;2024-03-17T09:16:07;3.43;;;2.60;;
13234;SDS011;6683;48.506;9.050;2024-03-17T09:19:11;2.67;;;2.47;;
13234;SDS011;6683;48.506;9.050;2024-03-17T09:22:13;2.43;;;2.23;;
13234;SDS011;6683;48.506;9.050;2024-03-17T09:25:16;2.50;;;2.30;;
13234;SDS011;6683;48.506;9.050;2024-03-17T09:28:18;2.77;;;2.27;;
13234;SDS011;6683;48.506;9.050;2024-03-17T09:31:21;2.37;;;2.17;;
13234;SDS011;6683;48.506;9.050;2024-03-17T09:34:23;2.67;;;2.47;;
13234;SDS011;6683;48.506;9.050;2024-03-17T09:37:25;2.40;;;2.20;;
13234;SDS011;6683;48.506;9.050;2024-03-17T09:40:28;2.27;;;2.00;;
13234;SDS011;6683;48.506;9.050;2024-03-17T09:43:31;2.73;;;2.20;;
13234;SDS011;6683;48.506;9.050;2024-03-17T09:46:36;2.53;;;2.33;;
13234;SDS011;6683;48.506;9.050;2024-03-17T09:49:38;2.60;;;2.40;;
13234;SDS011;6683;48.506;9.050;2024-03-17T09:52:42;2.10;;;2.00;;
13234;SDS011;6683;48.506;9.050;2024-03-17T09:55:47;2.30;;;2.10;;
13234;SDS011;6683;48.506;9.050;2024-03-17T09:58:49;2.23;;;1.90;;
13234;SDS011;6683;48.506;9.050;2024-03-17T10:01:54;3.10;;;2.07;;
13234;SDS011;6683;48.506;9.050;2024-03-17T10:04:56;2.67;;;2.10;;
13234;SDS011;6683;48.506;9.050;2024-03-17T10:07:58;2.20;;;2.00;;
13234;SDS011;6683;48.506;9.050;2024-03-17T10:11:00;1.87;;;1.77;;
13234;SDS011;6683;48.506;9.050;2024-03-17T10:14:04;2.47;;;2.23;;
13234;SDS011;6683;48.506;9.050;2024-03-17T10:17:09;2.43;;;2.13;;
13234;SDS011;6683;48.506;9.050;2024-03-17T10:20:12;2.00;;;1.80;;
13234;SDS011;6683;48.506;9.050;2024-03-17T10:23:16;3.00;;;1.50;;
13234;SDS011;6683;48.506;9.050;2024-03-17T10:26:19;1.73;;;1.20;;
13234;SDS011;6683;48.506;9.050;2024-03-17T10:29:22;1.60;;;1.13;;
13234;SDS011;6683;48.506;9.050;2024-03-17T10:32:28;2.17;;;1.27;;
13234;SDS011;6683;48.506;9.050;2024-03-17T10:35:32;2.10;;;1.00;;
13234;SDS011;6683;48.506;9.050;2024-03-17T10:38:38;1.33;;;1.07;;
13234;SDS011;6683;48.506;9.050;2024-03-17T10:41:58;1.97;;;0.87;;
13234;SDS011;6683;48.506;9.050;2024-03-17T10:45:02;1.43;;;0.93;;
13234;SDS011;6683;48.506;9.050;2024-03-17T10:48:14;1.50;;;0.87;;
13234;SDS011;6683;48.506;9.050;2024-03-17T10:51:20;2.40;;;1.10;;
13234;SDS011;6683;48.506;9.050;2024-03-17T10:54:25;1.27;;;0.47;;
13234;SDS011;6683;48.506;9.050;2024-03-17T10:57:31;2.03;;;0.80;;
13234;SDS011;6683;48.506;9.050;2024-03-17T11:00:48;1.10;;;0.70;;
13234;SDS011;6683;48.506;9.050;2024-03-17T11:03:53;1.20;;;0.90;;
13234;SDS011;6683;48.506;9.050;2024-03-17T11:06:55;1.53;;;0.80;;
13234;SDS011;6683;48.506;9.050;2024-03-17T11:09:58;1.57;;;0.83;;
13234;SDS011;6683;48.506;9.050;2024-03-17T11:13:03;1.47;;;0.93;;
13234;SDS011;6683;48.506;9.050;2024-03-17T11:16:05;1.90;;;0.80;;
13234;SDS011;6683;48.506;9.050;2024-03-17T11:19:29;1.60;;;0.90;;
13234;SDS011;6683;48.506;9.050;2024-03-17T11:22:48;2.10;;;0.80;;
13234;SDS011;6683;48.506;9.050;2024-03-17T11:25:52;1.13;;;0.67;;
13234;SDS011;6683;48.506;9.050;2024-03-17T11:28:57;1.30;;;1.00;;
13234;SDS011;6683;48.506;9.050;2024-03-17T11:32:01;1.63;;;0.70;;
13234;SDS011;6683;48.506;9.050;2024-03-17T11:35:29;2.20;;;0.90;;
13234;SDS011;6683;48.506;9.050;2024-03-17T11:45:05;1.17;;;0.90;;
13234;SDS011;6683;48.506;9.050;2024-03-17T11:48:16;1.40;;;0.83;;
13234;SDS011;6683;48.506;9.050;2024-03-17T11:51:18;1.93;;;0.80;;
13234;SDS011;6683;48.506;9.050;2024-03-17T11:54:21;1.03;;;0.93;;
13234;SDS011;6683;48.506;9.050;2024-03-17T11:57:25;2.10;;;0.73;;
13234;SDS011;6683;48.506;9.050;2024-03-17T12:00:28;2.33;;;0.90;;
13234;SDS011;6683;48.506;9.050;2024-03-17T12:03:30;0.60;;;0.60;;
13234;SDS011;6683;48.506;9.050;2024-03-17T12:06:33;3.07;;;0.80;;
13234;SDS011;6683;48.506;9.050;2024-03-17T12:09:35;1.80;;;0.97;;
13234;SDS011;6683;48.506;9.050;2024-03-17T12:12:36;3.10;;;0.70;;
13234;SDS011;6683;48.506;9.050;2024-03-17T12:15:40;2.00;;;0.80;;
13234;SDS011;6683;48.506;9.050;2024-03-17T12:18:43;1.10;;;0.60;;
13234;SDS011;6683;48.506;9.050;2024-03-17T12:21:47;1.13;;;0.60;;
13234;SDS011;6683;48.506;9.050;2024-03-17T12:24:51;1.67;;;0.70;;
13234;SDS011;6683;48.506;9.050;2024-03-17T12:27:55;2.00;;;0.63;;
13234;SDS011;6683;48.506;9.050;2024-03-17T12:30:58;0.83;;;0.60;;
13234;SDS011;6683;48.506;9.050;2024-03-17T12:33:59;1.30;;;0.80;;
13234;SDS011;6683;48.506;9.050;2024-03-17T12:37:04;1.43;;;0.60;;
13234;SDS011;6683;48.506;9.050;2024-03-17T12:40:08;1.30;;;0.80;;
13234;SDS011;6683;48.506;9.050;2024-03-17T12:43:25;0.60;;;0.60;;
13234;SDS011;6683;48.506;9.050;2024-03-17T12:46:27;1.00;;;0.70;;
13234;SDS011;6683;48.506;9.050;2024-03-17T12:49:29;1.17;;;0.70;;
13234;SDS011;6683;48.506;9.050;2024-03-17T12:52:35;1.00;;;0.80;;
13234;SDS011;6683;48.506;9.050;2024-03-17T12:55:39;1.10;;;0.70;;
13234;SDS011;6683;48.506;9.050;2024-03-17T12:59:04;1.23;;;0.83;;
13234;SDS011;6683;48.506;9.050;2024-03-17T13:02:24;1.00;;;0.90;;
13234;SDS011;6683;48.506;9.050;2024-03-17T13:05:28;1.97;;;0.70;;
13234;SDS011;6683;48.506;9.050;2024-03-17T13:08:33;1.77;;;0.50;;
13234;SDS011;6683;48.506;9.050;2024-03-17T13:11:35;0.70;;;0.60;;
13234;SDS011;6683;48.506;9.050;2024-03-17T13:14:38;0.90;;;0.70;;
13234;SDS011;6683;48.506;9.050;2024-03-17T13:17:40;1.10;;;0.60;;
13234;SDS011;6683;48.506;9.050;2024-03-17T13:20:43;0.87;;;0.60;;
13234;SDS011;6683;48.506;9.050;2024-03-17T13:23:46;0.80;;;0.60;;
13234;SDS011;6683;48.506;9.050;2024-03-17T13:26:48;0.83;;;0.50;;
13234;SDS011;6683;48.506;9.050;2024-03-17T13:29:52;1.67;;;0.50;;
13234;SDS011;6683;48.506;9.050;2024-03-17T13:32:54;2.13;;;0.70;;
13234;SDS011;6683;48.506;9.050;2024-03-17T13:35:58;2.37;;;0.50;;
13234;SDS011;6683;48.506;9.050;2024-03-17T13:39:01;1.80;;;0.60;;
13234;SDS011;6683;48.506;9.050;2024-03-17T13:42:06;1.40;;;0.60;;
13234;SDS011;6683;48.506;9.050;2024-03-17T13:45:10;1.73;;;0.50;;
13234;SDS011;6683;48.506;9.050;2024-03-17T13:48:13;2.43;;;0.60;;
13234;SDS011;6683;48.506;9.050;2024-03-17T13:51:15;0.90;;;0.57;;
13234;SDS011;6683;48.506;9.050;2024-03-17T13:54:19;1.07;;;0.70;;
13234;SDS011;6683;48.506;9.050;2024-03-17T13:57:21;0.60;;;0.60;;
13234;SDS011;6683;48.506;9.050;2024-03-17T14:00:24;0.90;;;0.60;;
13234;SDS011;6683;48.506;9.050;2024-03-17T14:03:27;0.63;;;0.40;;
13234;SDS011;6683;48.506;9.050;2024-03-17T14:06:30;0.80;;;0.50;;
13234;SDS011;6683;48.506;9.050;2024-03-17T14:09:34;1.37;;;0.50;;
13234;SDS011;6683;48.506;9.050;2024-03-17T14:12:36;2.57;;;0.60;;
13234;SDS011;6683;48.506;9.050;2024-03-17T14:15:39;0.90;;;0.50;;
13234;SDS011;6683;48.506;9.050;2024-03-17T14:18:41;1.37;;;0.77;;
13234;SDS011;6683;48.506;9.050;2024-03-17T14:21:44;1.27;;;0.50;;
13234;SDS011;6683;48.506;9.050;2024-03-17T14:24:47;1.90;;;0.60;;
13234;SDS011;6683;48.506;9.050;2024-03-17T14:27:49;2.33;;;0.60;;
13234;SDS011;6683;48.506;9.050;2024-03-17T14:30:52;2.13;;;0.70;;
13234;SDS011;6683;48.506;9.050;2024-03-17T14:33:54;1.00;;;0.50;;
13234;SDS011;6683;48.506;9.050;2024-03-17T14:36:56;0.90;;;0.50;;
13234;SDS011;6683;48.506;9.050;2024-03-17T14:40:00;1.03;;;0.73;;
13234;SDS011;6683;48.506;9.050;2024-03-17T14:43:06;1.70;;;0.83;;
13234;SDS011;6683;48.506;9.050;2024-03-17T14:46:08;0.70;;;0.63;;
13234;SDS011;6683;48.506;9.050;2024-03-17T14:49:13;1.90;;;0.70;;
13234;SDS011;6683;48.506;9.050;2024-03-17T14:52:15;0.50;;;0.40;;
13234;SDS011;6683;48.506;9.050;2024-03-17T14:55:20;2.43;;;0.50;;
13234;SDS011;6683;48.506;9.050;2024-03-17T14:58:23;1.50;;;0.60;;
13234;SDS011;6683;48.506;9.050;2024-03-17T15:01:25;1.83;;;0.60;;
13234;SDS011;6683;48.506;9.050;2024-03-17T15:04:29;2.30;;;0.60;;
13234;SDS011;6683;48.506;9.050;2024-03-17T15:07:32;1.30;;;0.60;;
13234;SDS011;6683;48.506;9.050;2024-03-17T15:10:35;1.33;;;0.50;;
13234;SDS011;6683;48.506;9.050;2024-03-17T15:13:37;1.83;;;0.50;;
13234;SDS011;6683;48.506;9.050;2024-03-17T15:16:42;2.03;;;1.00;;
13234;SDS011;6683;48.506;9.050;2024-03-17T15:19:46;2.33;;;0.53;;
13234;SDS011;6683;48.506;9.050;2024-03-17T15:22:48;0.93;;;0.50;;
13234;SDS011;6683;48.506;9.050;2024-03-17T15:25:53;1.27;;;0.70;;
13234;SDS011;6683;48.506;9.050;2024-03-17T15:28:59;1.23;;;0.53;;
13234;SDS011;6683;48.506;9.050;2024-03-17T15:32:03;0.60;;;0.50;;
13234;SDS011;6683;48.506;9.050;2024-03-17T15:35:06;0.97;;;0.60;;
13234;SDS011;6683;48.506;9.050;2024-03-17T15:38:10;2.00;;;0.50;;
13234;SDS011;6683;48.506;9.050;2024-03-17T15:41:13;1.03;;;0.63;;
13234;SDS011;6683;48.506;9.050;2024-03-17T15:44:15;1.10;;;0.60;;
13234;SDS011;6683;48.506;9.050;2024-03-17T15:47:17;1.43;;;0.60;;
13234;SDS011;6683;48.506;9.050;2024-03-17T15:50:20;1.30;;;0.50;;
13234;SDS011;6683;48.506;9.050;2024-03-17T15:53:22;0.90;;;0.53;;
13234;SDS011;6683;48.506;9.050;2024-03-17T15:56:27;2.00;;;0.63;;
13234;SDS011;6683;48.506;9.050;2024-03-17T15:59:29;1.23;;;0.60;;
13234;SDS011;6683;48.506;9.050;2024-03-17T16:02:31;1.40;;;0.57;;
13234;SDS011;6683;48.506;9.050;2024-03-17T16:05:34;1.63;;;0.70;;
13234;SDS011;6683;48.506;9.050;2024-03-17T16:08:37;1.13;;;0.60;;
13234;SDS011;6683;48.506;9.050;2024-03-17T16:11:44;2.27;;;0.70;;
13234;SDS011;6683;48.506;9.050;2024-03-17T16:14:47;1.23;;;0.80;;
13234;SDS011;6683;48.506;9.050;2024-03-17T16:17:52;1.93;;;0.93;;
13234;SDS011;6683;48.506;9.050;2024-03-17T16:20:56;1.17;;;0.80;;
13234;SDS011;6683;48.506;9.050;2024-03-17T16:24:06;1.17;;;0.60;;
13234;SDS011;6683;48.506;9.050;2024-03-17T16:27:13;1.10;;;0.70;;
13234;SDS011;6683;48.506;9.050;2024-03-17T16:30:15;1.40;;;0.90;;
13234;SDS011;6683;48.506;9.050;2024-03-17T16:33:18;1.43;;;0.77;;
13234;SDS011;6683;48.506;9.050;2024-03-17T16:36:20;1.90;;;1.00;;
13234;SDS011;6683;48.506;9.050;2024-03-17T16:39:22;1.20;;;0.80;;
13234;SDS011;6683;48.506;9.050;2024-03-17T16:42:27;2.10;;;0.97;;
13234;SDS011;6683;48.506;9.050;2024-03-17T16:45:29;0.93;;;0.70;;
13234;SDS011;6683;48.506;9.050;2024-03-17T16:48:32;1.10;;;0.70;;
13234;SDS011;6683;48.506;9.050;2024-03-17T16:51:35;1.83;;;0.70;;
13234;SDS011;6683;48.506;9.050;2024-03-17T16:54:37;1.17;;;0.63;;
13234;SDS011;6683;48.506;9.050;2024-03-17T16:57:41;0.53;;;0.50;;
13234;SDS011;6683;48.506;9.050;2024-03-17T17:00:43;1.50;;;0.60;;
13234;SDS011;6683;48.506;9.050;2024-03-17T17:03:45;1.33;;;0.50;;
13234;SDS011;6683;48.506;9.050;2024-03-17T17:06:47;1.03;;;0.57;;
13234;SDS011;6683;48.506;9.050;2024-03-17T17:09:49;1.43;;;0.70;;
13234;SDS011;6683;48.506;9.050;2024-03-17T17:12:53;1.10;;;0.50;;
13234;SDS011;6683;48.506;9.050;2024-03-17T17:15:55;2.07;;;0.73;;
13234;SDS011;6683;48.506;9.050;2024-03-17T17:18:58;1.17;;;0.63;;
13234;SDS011;6683;48.506;9.050;2024-03-17T17:22:05;1.87;;;1.30;;
13234;SDS011;6683;48.506;9.050;2024-03-17T17:25:08;1.40;;;0.80;;
13234;SDS011;6683;48.506;9.050;2024-03-17T17:28:17;1.47;;;0.87;;
13234;SDS011;6683;48.506;9.050;2024-03-17T17:31:19;1.53;;;0.93;;
13234;SDS011;6683;48.506;9.050;2024-03-17T17:34:23;1.00;;;0.70;;
13234;SDS011;6683;48.506;9.050;2024-03-17T17:37:25;2.23;;;1.20;;
13234;SDS011;6683;48.506;9.050;2024-03-17T17:40:27;3.87;;;1.30;;
13234;SDS011;6683;48.506;9.050;2024-03-17T17:43:31;1.93;;;1.40;;
13234;SDS011;6683;48.506;9.050;2024-03-17T17:46:35;3.50;;;2.10;;
13234;SDS011;6683;48.506;9.050;2024-03-17T17:49:37;3.77;;;2.93;;
13234;SDS011;6683;48.506;9.050;2024-03-17T17:52:39;5.83;;;3.10;;
13234;SDS011;6683;48.506;9.050;2024-03-17T17:55:41;2.93;;;2.47;;
13234;SDS011;6683;48.506;9.050;2024-03-17T17:58:45;5.27;;;2.77;;
13234;SDS011;6683;48.506;9.050;2024-03-17T18:01:48;2.87;;;2.20;;
13234;SDS011;6683;48.506;9.050;2024-03-17T18:04:51;3.27;;;2.20;;
13234;SDS011;6683;48.506;9.050;2024-03-17T18:07:53;2.40;;;1.97;;
13234;SDS011;6683;48.506;9.050;2024-03-17T18:10:56;2.37;;;1.63;;
13234;SDS011;6683;48.506;9.050;2024-03-17T18:13:59;3.67;;;1.40;;
13234;SDS011;6683;48.506;9.050;2024-03-17T18:17:01;1.63;;;1.10;;
13234;SDS011;6683;48.506;9.050;2024-03-17T18:20:04;1.50;;;0.83;;
13234;SDS011;6683;48.506;9.050;2024-03-17T18:23:09;1.23;;;0.93;;
13234;SDS011;6683;48.506;9.050;2024-03-17T18:26:12;1.50;;;0.77;;
13234;SDS011;6683;48.506;9.050;2024-03-17T18:29:16;2.90;;;0.83;;
13234;SDS011;6683;48.506;9.050;2024-03-17T18:32:18;2.60;;;0.90;;
13234;SDS011;6683;48.506;9.050;2024-03-17T18:35:20;1.43;;;0.77;;
13234;SDS011;6683;48.506;9.050;2024-03-17T18:38:23;1.77;;;0.80;;
13234;SDS011;6683;48.506;9.050;2024-03-17T18:41:25;1.60;;;0.93;;
13234;SDS011;6683;48.506;9.050;2024-03-17T18:44:29;1.50;;;0.90;;
13234;SDS011;6683;48.506;9.050;2024-03-17T18:47:31;1.23;;;0.90;;
13234;SDS011;6683;48.506;9.050;2024-03-17T18:50:33;3.07;;;1.20;;